Wetterstation Oberdrees
Wetterdaten: aktuell Sonntag, 22.07.2018 21:40
Datum Zeit Temp. A. Feuchte A. Luftdruck Regen Wind Richtung Richtung Taupunkt Windchill Windben
22.07.2018 21:40 25,4 C 50 % 1004 hPa 0,0 l/m 0,0 km/h (0 Bft) SW 225 14,2 C 25,4 C 0,0 km/h (0 Bft)
22.07.2018 21:30 25,6 C 49 % 1004 hPa 0,0 l/m 0,0 km/h (0 Bft) SW 225 14,1 C 25,6 C 0,0 km/h (0 Bft)
22.07.2018 21:20 25,9 C 48 % 1004 hPa 0,0 l/m 0,0 km/h (0 Bft) W 270 14,0 C 25,9 C 0,0 km/h (0 Bft)
22.07.2018 21:10 26,4 C 47 % 1003 hPa 0,0 l/m 0,0 km/h (0 Bft) W 270 14,2 C 26,4 C 0,0 km/h (0 Bft)
22.07.2018 21:00 26,6 C 47 % 1003 hPa 0,0 l/m 0,0 km/h (0 Bft) W-NW 292 14,3 C 26,6 C 0,0 km/h (0 Bft)
22.07.2018 20:50 26,8 C 46 % 1003 hPa 0,0 l/m 0,0 km/h (0 Bft) W-NW 292 14,2 C 26,8 C 0,0 km/h (0 Bft)
22.07.2018 20:40 26,9 C 45 % 1003 hPa 0,0 l/m 2,9 km/h (1 Bft) W 270 13,9 C 26,9 C 6,5 km/h (2 Bft)
22.07.2018 20:30 27,2 C 45 % 1003 hPa 0,0 l/m 4,7 km/h (1 Bft) W-NW 292 14,2 C 27,2 C 6,5 km/h (2 Bft)
22.07.2018 20:20 27,6 C 44 % 1003 hPa 0,0 l/m 4,7 km/h (1 Bft) NW 315 14,2 C 27,6 C 8,6 km/h (2 Bft)
22.07.2018 20:10 27,9 C 43 % 1003 hPa 0,0 l/m 6,5 km/h (2 Bft) N-NW 337 14,1 C 27,9 C 8,6 km/h (2 Bft)
22.07.2018 20:00 28,3 C 42 % 1003 hPa 0,0 l/m 6,5 km/h (2 Bft) NW 315 14,1 C 28,3 C 11,2 km/h (2 Bft)
22.07.2018 19:50 28,4 C 42 % 1003 hPa 0,0 l/m 5,4 km/h (2 Bft) NW 315 14,2 C 28,4 C 11,2 km/h (2 Bft)
22.07.2018 19:40 28,5 C 41 % 1003 hPa 0,0 l/m 0,0 km/h (0 Bft) N-NW 337 13,9 C 28,5 C 0,0 km/h (0 Bft)
22.07.2018 19:30 28,7 C 41 % 1003 hPa 0,0 l/m 0,0 km/h (0 Bft) W-NW 292 14,1 C 28,7 C 6,5 km/h (2 Bft)
22.07.2018 19:20 29,2 C 40 % 1003 hPa 0,0 l/m 4,3 km/h (1 Bft) W-NW 292 14,2 C 29,2 C 11,2 km/h (2 Bft)
22.07.2018 19:10 29,4 C 40 % 1003 hPa 0,0 l/m 0,0 km/h (0 Bft) N-NO 22 14,4 C 29,4 C 0,0 km/h (0 Bft)
22.07.2018 19:00 29,2 C 39 % 1003 hPa 0,0 l/m 0,0 km/h (0 Bft) NW 315 13,8 C 29,2 C 0,0 km/h (0 Bft)
22.07.2018 18:50 29,2 C 39 % 1003 hPa 0,0 l/m 7,6 km/h (2 Bft) N 360 13,8 C 29,1 C 11,2 km/h (2 Bft)
22.07.2018 18:40 29,4 C 38 % 1003 hPa 0,0 l/m 1,8 km/h (1 Bft) N 360 13,6 C 29,4 C 4,3 km/h (1 Bft)
22.07.2018 18:30 30,2 C 35 % 1003 hPa 0,0 l/m 0,7 km/h (0 Bft) NW 315 13,0 C 30,2 C 4,3 km/h (1 Bft)
22.07.2018 18:20 31,1 C 35 % 1003 hPa 0,0 l/m 0,0 km/h (0 Bft) N-NO 22 13,8 C 31,1 C 0,0 km/h (0 Bft)
22.07.2018 18:10 31,4 C 35 % 1003 hPa 0,0 l/m 0,0 km/h (0 Bft) W 270 14,1 C 31,4 C 0,0 km/h (0 Bft)
22.07.2018 18:00 31,3 C 35 % 1003 hPa 0,0 l/m 0,0 km/h (0 Bft) N-NW 337 14,0 C 31,3 C 0,0 km/h (0 Bft)
22.07.2018 17:50 31,6 C 36 % 1003 hPa 0,0 l/m 0,0 km/h (0 Bft) SW 225 14,7 C 31,6 C 0,0 km/h (0 Bft)
22.07.2018 17:40 31,2 C 36 % 1003 hPa 0,0 l/m 0,0 km/h (0 Bft) W-SW 247 14,3 C 31,2 C 0,0 km/h (0 Bft)
22.07.2018 17:30 31,4 C 35 % 1003 hPa 0,0 l/m 4,7 km/h (1 Bft) N-NW 337 14,1 C 31,4 C 8,6 km/h (2 Bft)
22.07.2018 17:20 31,8 C 35 % 1003 hPa 0,0 l/m 2,2 km/h (1 Bft) W-NW 292 14,4 C 31,8 C 4,3 km/h (1 Bft)
22.07.2018 17:10 32,2 C 36 % 1003 hPa 0,0 l/m 3,6 km/h (1 Bft) N-NW 337 15,2 C 32,2 C 8,6 km/h (2 Bft)
22.07.2018 17:00 32,0 C 35 % 1003 hPa 0,0 l/m 0,0 km/h (0 Bft) N 360 14,6 C 32,0 C 0,0 km/h (0 Bft)
22.07.2018 16:50 32,4 C 35 % 1003 hPa 0,0 l/m 4,0 km/h (1 Bft) S-SW 202 14,9 C 32,4 C 8,6 km/h (2 Bft)
22.07.2018 16:40 32,0 C 36 % 1003 hPa 0,0 l/m 0,0 km/h (0 Bft) N-NO 22 15,0 C 32,0 C 0,0 km/h (0 Bft)
22.07.2018 16:30 31,9 C 36 % 1003 hPa 0,0 l/m 8,3 km/h (2 Bft) N 360 14,9 C 31,8 C 11,2 km/h (2 Bft)
22.07.2018 16:20 31,2 C 38 % 1003 hPa 0,0 l/m 2,9 km/h (1 Bft) N 360 15,2 C 31,2 C 8,6 km/h (2 Bft)
22.07.2018 16:10 31,3 C 38 % 1003 hPa 0,0 l/m 0,0 km/h (0 Bft) SW 225 15,3 C 31,3 C 0,0 km/h (0 Bft)
22.07.2018 16:00 30,9 C 39 % 1003 hPa 0,0 l/m 0,4 km/h (0 Bft) S-SW 202 15,3 C 30,9 C 8,6 km/h (2 Bft)
22.07.2018 15:50 30,9 C 39 % 1003 hPa 0,0 l/m 2,9 km/h (1 Bft) W-NW 292 15,3 C 30,9 C 4,3 km/h (1 Bft)
22.07.2018 15:40 31,1 C 38 % 1003 hPa 0,0 l/m 4,7 km/h (1 Bft) N 360 15,1 C 31,1 C 8,6 km/h (2 Bft)
22.07.2018 15:30 30,8 C 38 % 1003 hPa 0,0 l/m 5,0 km/h (1 Bft) NO 45 14,8 C 30,8 C 8,6 km/h (2 Bft)
22.07.2018 15:20 31,5 C 38 % 1003 hPa 0,0 l/m 0,0 km/h (0 Bft) N 360 15,4 C 31,5 C 13,3 km/h (3 Bft)
22.07.2018 15:10 31,5 C 39 % 1003 hPa 0,0 l/m 1,8 km/h (1 Bft) W-SW 247 15,8 C 31,5 C 6,5 km/h (2 Bft)
22.07.2018 15:00 31,4 C 39 % 1003 hPa 0,0 l/m 6,8 km/h (2 Bft) W 270 15,7 C 31,4 C 11,2 km/h (2 Bft)
22.07.2018 14:50 31,2 C 38 % 1003 hPa 0,0 l/m 1,1 km/h (1 Bft) W 270 15,2 C 31,2 C 4,3 km/h (1 Bft)
22.07.2018 14:40 31,2 C 40 % 1003 hPa 0,0 l/m 6,5 km/h (2 Bft) N 360 16,0 C 31,2 C 11,2 km/h (2 Bft)
22.07.2018 14:30 30,6 C 41 % 1003 hPa 0,0 l/m 4,7 km/h (1 Bft) SW 225 15,8 C 30,6 C 6,5 km/h (2 Bft)
22.07.2018 14:20 30,7 C 41 % 1003 hPa 0,0 l/m 3,2 km/h (1 Bft) N 360 15,9 C 30,7 C 6,5 km/h (2 Bft)
22.07.2018 14:10 30,4 C 43 % 1003 hPa 0,0 l/m 4,7 km/h (1 Bft) W-NW 292 16,4 C 30,4 C 6,5 km/h (2 Bft)
22.07.2018 14:00 29,8 C 42 % 1003 hPa 0,0 l/m 6,8 km/h (2 Bft) N-NW 337 15,5 C 29,8 C 8,6 km/h (2 Bft)
22.07.2018 13:50 29,8 C 40 % 1003 hPa 0,0 l/m 1,8 km/h (1 Bft) NO 45 14,7 C 29,8 C 4,3 km/h (1 Bft)
22.07.2018 13:40 30,1 C 42 % 1003 hPa 0,0 l/m 6,5 km/h (2 Bft) N-NW 337 15,7 C 30,1 C 6,5 km/h (2 Bft)
22.07.2018 13:30 30,1 C 43 % 1003 hPa 0,0 l/m 4,0 km/h (1 Bft) N-NW 337 16,1 C 30,1 C 6,5 km/h (2 Bft)
22.07.2018 13:20 29,8 C 42 % 1004 hPa 0,0 l/m 4,0 km/h (1 Bft) N-NO 22 15,5 C 29,8 C 6,5 km/h (2 Bft)
22.07.2018 13:10 29,9 C 43 % 1004 hPa 0,0 l/m 1,8 km/h (1 Bft) NW 315 15,9 C 29,9 C 8,6 km/h (2 Bft)
22.07.2018 13:00 29,5 C 43 % 1004 hPa 0,0 l/m 2,9 km/h (1 Bft) SW 225 15,6 C 29,5 C 6,5 km/h (2 Bft)
22.07.2018 12:50 29,5 C 44 % 1004 hPa 0,0 l/m 7,2 km/h (2 Bft) N 360 15,9 C 29,4 C 11,2 km/h (2 Bft)
22.07.2018 12:40 29,2 C 44 % 1004 hPa 0,0 l/m 3,6 km/h (1 Bft) N-NO 22 15,7 C 29,2 C 6,5 km/h (2 Bft)
22.07.2018 12:30 29,2 C 45 % 1004 hPa 0,0 l/m 2,9 km/h (1 Bft) NW 315 16,0 C 29,2 C 6,5 km/h (2 Bft)
22.07.2018 12:20 28,8 C 45 % 1004 hPa 0,0 l/m 2,5 km/h (1 Bft) NW 315 15,7 C 28,8 C 4,3 km/h (1 Bft)
22.07.2018 12:10 28,6 C 46 % 1004 hPa 0,0 l/m 6,1 km/h (2 Bft) W-SW 247 15,8 C 28,6 C 8,6 km/h (2 Bft)
22.07.2018 12:00 28,4 C 47 % 1004 hPa 0,0 l/m 0,0 km/h (0 Bft) W-NW 292 16,0 C 28,4 C 0,0 km/h (0 Bft)
22.07.2018 11:50 28,0 C 48 % 1004 hPa 0,0 l/m 0,0 km/h (0 Bft) NW 315 15,9 C 28,0 C 0,0 km/h (0 Bft)
22.07.2018 11:40 27,6 C 49 % 1004 hPa 0,0 l/m 0,0 km/h (0 Bft) N-NO 22 15,9 C 27,6 C 0,0 km/h (0 Bft)
22.07.2018 11:30 27,4 C 51 % 1004 hPa 0,0 l/m 6,8 km/h (2 Bft) N 360 16,3 C 27,3 C 8,6 km/h (2 Bft)
22.07.2018 11:20 27,0 C 52 % 1004 hPa 0,0 l/m 4,0 km/h (1 Bft) N 360 16,3 C 27,0 C 13,3 km/h (3 Bft)
22.07.2018 11:10 26,8 C 53 % 1004 hPa 0,0 l/m 5,8 km/h (2 Bft) NW 315 16,4 C 26,8 C 8,6 km/h (2 Bft)
22.07.2018 11:00 26,4 C 52 % 1004 hPa 0,0 l/m 4,0 km/h (1 Bft) N-NW 337 15,7 C 26,4 C 15,5 km/h (3 Bft)
22.07.2018 10:50 26,2 C 54 % 1004 hPa 0,0 l/m 3,2 km/h (1 Bft) N-NW 337 16,1 C 26,2 C 6,5 km/h (2 Bft)
22.07.2018 10:40 25,9 C 56 % 1004 hPa 0,0 l/m 0,0 km/h (0 Bft) W 270 16,4 C 25,9 C 0,0 km/h (0 Bft)
22.07.2018 10:30 25,6 C 58 % 1004 hPa 0,0 l/m 3,6 km/h (1 Bft) NW 315 16,7 C 25,6 C 6,5 km/h (2 Bft)
22.07.2018 10:20 25,0 C 60 % 1003 hPa 0,0 l/m 1,8 km/h (1 Bft) W-NW 292 16,7 C 25,0 C 2,2 km/h (1 Bft)
22.07.2018 10:10 24,0 C 61 % 1004 hPa 0,0 l/m 0,0 km/h (0 Bft) N-NW 337 16,0 C 24,0 C 0,0 km/h (0 Bft)
22.07.2018 10:00 23,4 C 64 % 1004 hPa 0,0 l/m 4,3 km/h (1 Bft) NW 315 16,2 C 23,4 C 8,6 km/h (2 Bft)
22.07.2018 09:50 22,9 C 66 % 1004 hPa 0,0 l/m 5,0 km/h (1 Bft) NW 315 16,2 C 22,9 C 6,5 km/h (2 Bft)
22.07.2018 09:40 22,0 C 68 % 1004 hPa 0,0 l/m 0,7 km/h (0 Bft) S-SW 202 15,8 C 22,0 C 8,6 km/h (2 Bft)
22.07.2018 09:30 21,5 C 68 % 1004 hPa 0,0 l/m 0,7 km/h (0 Bft) N-NW 337 15,3 C 21,5 C 4,3 km/h (1 Bft)
22.07.2018 09:20 21,4 C 69 % 1003 hPa 0,0 l/m 1,1 km/h (1 Bft) W-SW 247 15,5 C 21,4 C 6,5 km/h (2 Bft)
22.07.2018 09:10 21,0 C 69 % 1003 hPa 0,0 l/m 2,9 km/h (1 Bft) W-NW 292 15,1 C 21,0 C 6,5 km/h (2 Bft)
22.07.2018 09:00 20,8 C 70 % 1003 hPa 0,0 l/m 0,7 km/h (0 Bft) N-NW 337 15,1 C 20,8 C 6,5 km/h (2 Bft)
22.07.2018 08:50 20,2 C 70 % 1003 hPa 0,0 l/m 7,6 km/h (2 Bft) W 270 14,5 C 19,7 C 11,2 km/h (2 Bft)
22.07.2018 08:40 19,7 C 71 % 1003 hPa 0,0 l/m 4,7 km/h (1 Bft) S-SW 202 14,3 C 19,7 C 6,5 km/h (2 Bft)
22.07.2018 08:30 19,4 C 71 % 1003 hPa 0,0 l/m 4,0 km/h (1 Bft) W-SW 247 14,0 C 19,4 C 8,6 km/h (2 Bft)
22.07.2018 08:20 19,1 C 72 % 1003 hPa 0,0 l/m 4,0 km/h (1 Bft) W-NW 292 13,9 C 19,1 C 6,5 km/h (2 Bft)
22.07.2018 08:10 18,8 C 72 % 1003 hPa 0,0 l/m 7,2 km/h (2 Bft) N-NW 337 13,6 C 18,4 C 11,2 km/h (2 Bft)
22.07.2018 08:00 18,5 C 73 % 1003 hPa 0,0 l/m 4,0 km/h (1 Bft) W-SW 247 13,6 C 18,5 C 6,5 km/h (2 Bft)
22.07.2018 07:50 18,5 C 73 % 1003 hPa 0,0 l/m 0,4 km/h (0 Bft) W-NW 292 13,6 C 18,5 C 4,3 km/h (1 Bft)
22.07.2018 07:40 18,4 C 73 % 1003 hPa 0,0 l/m 1,4 km/h (1 Bft) W-NW 292 13,5 C 18,4 C 2,2 km/h (1 Bft)
22.07.2018 07:30 18,3 C 74 % 1003 hPa 0,0 l/m 0,0 km/h (0 Bft) N-NW 337 13,6 C 18,3 C 0,0 km/h (0 Bft)
22.07.2018 07:20 18,2 C 74 % 1003 hPa 0,0 l/m 1,8 km/h (1 Bft) N-NW 337 13,5 C 18,2 C 4,3 km/h (1 Bft)
22.07.2018 07:10 18,2 C 74 % 1003 hPa 0,0 l/m 0,7 km/h (0 Bft) NW 315 13,5 C 18,2 C 2,2 km/h (1 Bft)
22.07.2018 07:00 18,2 C 74 % 1003 hPa 0,0 l/m 0,0 km/h (0 Bft) SW 225 13,5 C 18,2 C 0,0 km/h (0 Bft)
22.07.2018 06:50 18,2 C 74 % 1003 hPa 0,0 l/m 0,0 km/h (0 Bft) W 270 13,5 C 18,2 C 0,0 km/h (0 Bft)
22.07.2018 06:40 18,2 C 74 % 1003 hPa 0,0 l/m 0,0 km/h (0 Bft) W 270 13,5 C 18,2 C 2,2 km/h (1 Bft)
22.07.2018 06:30 18,1 C 73 % 1002 hPa 0,0 l/m 0,0 km/h (0 Bft) W-SW 247 13,2 C 18,1 C 0,0 km/h (0 Bft)
22.07.2018 06:20 18,2 C 74 % 1003 hPa 0,0 l/m 0,0 km/h (0 Bft) W 270 13,5 C 18,2 C 0,0 km/h (0 Bft)
22.07.2018 06:10 18,2 C 73 % 1003 hPa 0,0 l/m 0,4 km/h (0 Bft) SW 225 13,3 C 18,2 C 4,3 km/h (1 Bft)
22.07.2018 06:00 18,3 C 73 % 1003 hPa 0,0 l/m 0,0 km/h (0 Bft) SW 225 13,4 C 18,3 C 0,0 km/h (0 Bft)
22.07.2018 05:50 18,4 C 73 % 1003 hPa 0,0 l/m 0,0 km/h (0 Bft) W 270 13,5 C 18,4 C 0,0 km/h (0 Bft)
22.07.2018 05:40 18,4 C 73 % 1003 hPa 0,0 l/m 0,0 km/h (0 Bft) W-SW 247 13,5 C 18,4 C 0,0 km/h (0 Bft)
22.07.2018 05:30 18,5 C 73 % 1002 hPa 0,0 l/m 0,0 km/h (0 Bft) W-SW 247 13,6 C 18,5 C 0,0 km/h (0 Bft)
22.07.2018 05:20 18,6 C 73 % 1002 hPa 0,0 l/m 0,7 km/h (0 Bft) W-NW 292 13,7 C 18,6 C 4,3 km/h (1 Bft)
22.07.2018 05:10 18,7 C 73 % 1002 hPa 0,0 l/m 3,2 km/h (1 Bft) W-NW 292 13,8 C 18,7 C 4,3 km/h (1 Bft)
22.07.2018 05:00 18,7 C 73 % 1002 hPa 0,0 l/m 0,0 km/h (0 Bft) W-NW 292 13,8 C 18,7 C 2,2 km/h (1 Bft)
22.07.2018 04:50 18,8 C 72 % 1002 hPa 0,0 l/m 0,0 km/h (0 Bft) W 270 13,6 C 18,8 C 0,0 km/h (0 Bft)
22.07.2018 04:40 18,8 C 72 % 1002 hPa 0,0 l/m 0,0 km/h (0 Bft) W-SW 247 13,6 C 18,8 C 0,0 km/h (0 Bft)
22.07.2018 04:30 18,8 C 72 % 1002 hPa 0,0 l/m 0,0 km/h (0 Bft) SW 225 13,6 C 18,8 C 0,0 km/h (0 Bft)
22.07.2018 04:20 18,8 C 72 % 1002 hPa 0,0 l/m 0,0 km/h (0 Bft) W-SW 247 13,6 C 18,8 C 0,0 km/h (0 Bft)
22.07.2018 04:10 18,9 C 72 % 1002 hPa 0,0 l/m 0,0 km/h (0 Bft) W 270 13,7 C 18,9 C 0,0 km/h (0 Bft)
22.07.2018 04:00 18,9 C 73 % 1002 hPa 0,0 l/m 0,0 km/h (0 Bft) W-SW 247 13,9 C 18,9 C 0,0 km/h (0 Bft)
22.07.2018 03:50 19,0 C 72 % 1002 hPa 0,0 l/m 1,8 km/h (1 Bft) W 270 13,8 C 19,0 C 4,3 km/h (1 Bft)
22.07.2018 03:40 19,0 C 72 % 1002 hPa 0,0 l/m 0,7 km/h (0 Bft) W 270 13,8 C 19,0 C 6,5 km/h (2 Bft)
22.07.2018 03:30 19,1 C 72 % 1002 hPa 0,0 l/m 0,7 km/h (0 Bft) W-NW 292 13,9 C 19,1 C 4,3 km/h (1 Bft)
22.07.2018 03:20 19,2 C 72 % 1002 hPa 0,0 l/m 0,0 km/h (0 Bft) NW 315 14,0 C 19,2 C 0,0 km/h (0 Bft)
22.07.2018 03:10 19,2 C 72 % 1002 hPa 0,0 l/m 1,8 km/h (1 Bft) W-SW 247 14,0 C 19,2 C 4,3 km/h (1 Bft)
22.07.2018 03:00 19,2 C 72 % 1002 hPa 0,0 l/m 1,4 km/h (1 Bft) W-SW 247 14,0 C 19,2 C 4,3 km/h (1 Bft)
22.07.2018 02:50 19,3 C 72 % 1002 hPa 0,0 l/m 1,1 km/h (1 Bft) O 90 14,1 C 19,3 C 4,3 km/h (1 Bft)
22.07.2018 02:40 19,4 C 72 % 1002 hPa 0,0 l/m 1,8 km/h (1 Bft) SW 225 14,2 C 19,4 C 4,3 km/h (1 Bft)
22.07.2018 02:30 19,5 C 72 % 1002 hPa 0,0 l/m 4,0 km/h (1 Bft) W-SW 247 14,3 C 19,5 C 6,5 km/h (2 Bft)
22.07.2018 02:20 19,5 C 73 % 1002 hPa 0,0 l/m 0,7 km/h (0 Bft) W 270 14,5 C 19,5 C 2,2 km/h (1 Bft)
22.07.2018 02:10 19,6 C 74 % 1002 hPa 0,0 l/m 0,0 km/h (0 Bft) W 270 14,8 C 19,6 C 2,2 km/h (1 Bft)
22.07.2018 02:00 19,6 C 74 % 1002 hPa 0,0 l/m 1,8 km/h (1 Bft) W 270 14,8 C 19,6 C 4,3 km/h (1 Bft)
22.07.2018 01:50 19,7 C 74 % 1002 hPa 0,0 l/m 0,0 km/h (0 Bft) W-NW 292 14,9 C 19,7 C 0,0 km/h (0 Bft)
22.07.2018 01:40 19,8 C 74 % 1002 hPa 0,0 l/m 0,7 km/h (0 Bft) W 270 15,0 C 19,8 C 2,2 km/h (1 Bft)
22.07.2018 01:30 19,8 C 75 % 1002 hPa 0,0 l/m 2,2 km/h (1 Bft) W 270 15,2 C 19,8 C 4,3 km/h (1 Bft)
22.07.2018 01:20 19,8 C 75 % 1001 hPa 0,0 l/m 1,8 km/h (1 Bft) W 270 15,2 C 19,8 C 4,3 km/h (1 Bft)
22.07.2018 01:10 19,8 C 76 % 1001 hPa 0,0 l/m 3,6 km/h (1 Bft) W 270 15,4 C 19,8 C 6,5 km/h (2 Bft)
22.07.2018 01:00 19,8 C 76 % 1001 hPa 0,0 l/m 3,2 km/h (1 Bft) W-NW 292 15,4 C 19,8 C 6,5 km/h (2 Bft)
22.07.2018 00:50 19,7 C 76 % 1001 hPa 0,0 l/m 5,4 km/h (2 Bft) SW 225 15,3 C 19,7 C 6,5 km/h (2 Bft)
22.07.2018 00:40 19,6 C 76 % 1001 hPa 0,0 l/m 4,3 km/h (1 Bft) W-SW 247 15,2 C 19,6 C 6,5 km/h (2 Bft)
22.07.2018 00:30 19,7 C 75 % 1001 hPa 0,0 l/m 0,4 km/h (0 Bft) W-SW 247 15,1 C 19,7 C 4,3 km/h (1 Bft)
22.07.2018 00:20 19,8 C 75 % 1001 hPa 0,0 l/m 0,0 km/h (0 Bft) W-SW 247 15,2 C 19,8 C 4,3 km/h (1 Bft)
22.07.2018 00:10 19,7 C 75 % 1001 hPa 0,0 l/m 2,2 km/h (1 Bft) W 270 15,1 C 19,7 C 4,3 km/h (1 Bft)
22.07.2018 00:00 19,7 C 75 % 1001 hPa 0,0 l/m 4,0 km/h (1 Bft) W 270 15,1 C 19,7 C 4,3 km/h (1 Bft)
21.07.2018 23:50 19,7 C 75 % 1001 hPa 0,0 l/m 2,9 km/h (1 Bft) W-SW 247 15,1 C 19,7 C 4,3 km/h (1 Bft)
21.07.2018 23:40 19,7 C 75 % 1001 hPa 0,0 l/m 2,9 km/h (1 Bft) W 270 15,1 C 19,7 C 4,3 km/h (1 Bft)
21.07.2018 23:30 19,8 C 75 % 1001 hPa 0,0 l/m 5,4 km/h (2 Bft) W-NW 292 15,2 C 19,8 C 8,6 km/h (2 Bft)
21.07.2018 23:20 19,8 C 75 % 1001 hPa 0,0 l/m 6,1 km/h (2 Bft) W-SW 247 15,2 C 19,8 C 8,6 km/h (2 Bft)
21.07.2018 23:10 19,7 C 74 % 1001 hPa 0,0 l/m 5,4 km/h (2 Bft) W 270 14,9 C 19,7 C 6,5 km/h (2 Bft)
21.07.2018 23:00 19,7 C 74 % 1001 hPa 0,0 l/m 4,0 km/h (1 Bft) W 270 14,9 C 19,7 C 8,6 km/h (2 Bft)
21.07.2018 22:50 19,7 C 74 % 1001 hPa 0,0 l/m 3,6 km/h (1 Bft) W 270 14,9 C 19,7 C 6,5 km/h (2 Bft)
21.07.2018 22:40 19,9 C 74 % 1001 hPa 0,0 l/m 3,6 km/h (1 Bft) W 270 15,1 C 19,9 C 6,5 km/h (2 Bft)
21.07.2018 22:30 20,0 C 74 % 1001 hPa 0,0 l/m 2,5 km/h (1 Bft) SW 225 15,2 C 20,0 C 4,3 km/h (1 Bft)
21.07.2018 22:20 20,2 C 74 % 1001 hPa 0,0 l/m 4,7 km/h (1 Bft) W-SW 247 15,4 C 20,2 C 8,6 km/h (2 Bft)
21.07.2018 22:10 20,4 C 73 % 1001 hPa 0,0 l/m 0,4 km/h (0 Bft) W-SW 247 15,4 C 20,4 C 6,5 km/h (2 Bft)
21.07.2018 22:00 20,6 C 73 % 1001 hPa 0,0 l/m 0,0 km/h (0 Bft) SW 225 15,6 C 20,6 C 4,3 km/h (1 Bft)
_ Min-Zeit 06:30 16:50 22:00 - 22:00 - - 18:30 06:30 01:50
Minimum _ 18,1 C 35 % 1001 hPa - 0,0 km/h (0 Bft) - - 13,0 C 18,1 C 0,0 km/h (0 Bft)
_ Max-Zeit 16:50 00:40 09:30 22:00 16:30 - - 10:30 16:50 11:00
Maximum _ 32,4 C 76 % 1004 hPa 0,0 l/m 8,3 km/h
N (2 Bft)
- - 16,7 C 32,4 C 15,5 km/h
N-NW (3 Bft)
Durchschnitt _ 24,0 C 59 % 1002 hPa #0,0 l/m 2,2 km/h (1 Bft) W - 14,8 C 24,0 C 4,8 km/h (1 Bft)
www.klaudt.eu